createdAt,value
2023-03-05T00:00:00.831Z,44.57
2023-03-05T00:05:00.614Z,44.64
2023-03-05T00:10:00.422Z,44.74
2023-03-05T00:15:00.200Z,45.01
2023-03-05T00:20:05.158Z,45.04
2023-03-05T00:24:59.804Z,45.04
2023-03-05T00:29:59.622Z,45.16
2023-03-05T00:34:59.441Z,45.18
2023-03-05T00:39:59.270Z,45.22
2023-03-05T00:44:59.073Z,45.30
2023-03-05T00:49:58.919Z,45.39
2023-03-05T00:54:58.751Z,45.36
2023-03-05T00:59:58.642Z,45.45
2023-03-05T01:04:58.471Z,45.62
2023-03-05T01:09:58.334Z,45.58
2023-03-05T01:14:58.219Z,45.69
2023-03-05T01:19:58.058Z,45.76
2023-03-05T01:24:57.913Z,45.87
2023-03-05T01:29:57.778Z,46.00
2023-03-05T01:34:57.638Z,46.01
2023-03-05T01:39:57.520Z,46.02
2023-03-05T01:44:57.384Z,46.07
2023-03-05T01:49:57.269Z,46.11
2023-03-05T01:54:57.164Z,46.11
2023-03-05T01:59:57.016Z,46.24
2023-03-05T02:04:56.899Z,46.24
2023-03-05T02:09:56.793Z,46.19
2023-03-05T02:14:56.689Z,46.25
2023-03-05T02:19:56.560Z,46.25
2023-03-05T02:24:56.390Z,46.34
2023-03-05T02:29:56.265Z,46.37
2023-03-05T02:34:56.111Z,46.30
2023-03-05T02:39:55.970Z,46.31
2023-03-05T02:44:55.815Z,46.48
2023-03-05T02:49:55.659Z,46.45
2023-03-05T02:54:55.523Z,46.45
2023-03-05T02:59:55.407Z,46.45
2023-03-05T03:04:55.207Z,46.53
2023-03-05T03:09:55.071Z,46.79
2023-03-05T03:14:54.923Z,46.94
2023-03-05T03:19:54.785Z,46.99
2023-03-05T03:24:54.654Z,47.09
2023-03-05T03:29:54.537Z,47.16
2023-03-05T03:34:54.414Z,47.21
2023-03-05T03:39:54.270Z,47.20
2023-03-05T03:44:54.131Z,47.14
2023-03-05T03:49:56.082Z,47.16
2023-03-05T03:54:53.862Z,47.10
2023-03-05T03:59:53.731Z,47.13
2023-03-05T04:04:53.615Z,47.17
2023-03-05T04:09:53.512Z,47.25
2023-03-05T04:14:53.388Z,47.27
2023-03-05T04:19:53.300Z,47.17
2023-03-05T04:24:53.200Z,47.25
2023-03-05T04:29:53.076Z,47.28
2023-03-05T04:34:52.953Z,46.68
2023-03-05T04:39:52.825Z,45.75
2023-03-05T04:44:52.682Z,44.88
2023-03-05T04:49:52.523Z,43.76
2023-03-05T04:54:52.357Z,41.94
2023-03-05T04:59:52.229Z,40.33
2023-03-05T05:04:52.072Z,39.94
2023-03-05T05:09:51.987Z,40.48
2023-03-05T05:14:51.713Z,39.94
2023-03-05T05:19:51.555Z,40.57
2023-03-05T05:24:51.474Z,40.84
2023-03-05T05:29:51.210Z,40.32
2023-03-05T05:34:50.987Z,39.88
2023-03-05T05:39:50.818Z,39.59
2023-03-05T05:44:50.638Z,39.30
2023-03-05T05:49:50.465Z,39.07
2023-03-05T05:54:50.271Z,38.95
2023-03-05T05:59:50.099Z,38.69
2023-03-05T06:04:49.906Z,38.35
2023-03-05T06:09:49.725Z,38.36
2023-03-05T06:14:49.534Z,38.70
2023-03-05T06:19:49.347Z,38.69
2023-03-05T06:24:49.153Z,38.46
2023-03-05T06:29:48.963Z,38.29
2023-03-05T06:34:48.769Z,38.25
2023-03-05T06:39:53.799Z,38.09
2023-03-05T06:44:48.571Z,38.08
2023-03-05T06:49:48.180Z,39.58
2023-03-05T06:54:47.923Z,39.40
2023-03-05T06:59:47.678Z,39.32
2023-03-05T07:04:47.415Z,39.52
2023-03-05T07:09:47.175Z,39.50
2023-03-05T07:14:46.923Z,38.93
2023-03-05T07:19:46.619Z,39.15
2023-03-05T07:24:46.319Z,39.32
2023-03-05T07:29:46.037Z,39.00
2023-03-05T07:34:45.717Z,39.34
2023-03-05T07:39:47.233Z,38.45
2023-03-05T07:44:45.145Z,38.32
2023-03-05T07:49:44.815Z,38.09
2023-03-05T07:54:44.504Z,38.07
2023-03-05T07:59:44.219Z,37.70
2023-03-05T08:04:43.897Z,37.67
2023-03-05T08:09:43.612Z,37.45
2023-03-05T08:14:43.286Z,37.65
2023-03-05T08:19:42.974Z,37.58
2023-03-05T08:24:42.672Z,37.37
2023-03-05T08:29:42.451Z,37.36
2023-03-05T08:34:42.104Z,36.81
2023-03-05T08:39:41.789Z,36.55
2023-03-05T08:44:41.493Z,36.53
2023-03-05T08:49:41.281Z,36.19
2023-03-05T08:54:40.907Z,36.07
2023-03-05T08:59:40.621Z,36.20
2023-03-05T09:04:40.368Z,36.65
2023-03-05T09:09:40.050Z,36.99
2023-03-05T09:14:39.747Z,38.02
2023-03-05T09:19:39.449Z,38.25
2023-03-05T09:24:39.164Z,38.56
2023-03-05T09:29:40.042Z,38.57
2023-03-05T09:34:38.533Z,38.63
2023-03-05T09:39:38.229Z,37.89
2023-03-05T09:44:37.938Z,37.75
2023-03-05T09:49:37.619Z,37.99
2023-03-05T09:54:37.300Z,37.36
2023-03-05T09:59:37.001Z,37.57
2023-03-05T10:04:36.695Z,37.19
2023-03-05T10:09:37.009Z,37.17
2023-03-05T10:14:36.010Z,36.46
2023-03-05T10:19:35.707Z,36.24
2023-03-05T10:24:35.370Z,36.05
2023-03-05T10:29:35.059Z,36.29
2023-03-05T10:34:34.734Z,36.00
2023-03-05T10:39:34.414Z,36.23
2023-03-05T10:44:34.066Z,36.16
2023-03-05T10:49:33.724Z,36.25
2023-03-05T10:54:33.394Z,36.70
2023-03-05T10:59:33.077Z,36.74
2023-03-05T11:04:32.712Z,37.05
2023-03-05T11:09:32.436Z,37.23
2023-03-05T11:14:32.061Z,36.50
2023-03-05T11:19:31.731Z,36.42
2023-03-05T11:24:31.396Z,36.22
2023-03-05T11:29:31.072Z,36.34
2023-03-05T11:34:30.728Z,36.07
2023-03-05T11:39:30.421Z,35.83
2023-03-05T11:44:30.067Z,36.00
2023-03-05T11:49:29.738Z,36.18
2023-03-05T11:54:29.438Z,36.35
2023-03-05T11:59:29.086Z,36.50
2023-03-05T12:04:28.766Z,36.56
2023-03-05T12:09:28.448Z,36.49
2023-03-05T12:14:28.076Z,36.79
2023-03-05T12:19:27.769Z,36.72
2023-03-05T12:24:28.527Z,36.94
2023-03-05T12:29:27.091Z,37.00
2023-03-05T12:34:26.725Z,36.91
2023-03-05T12:39:26.413Z,36.98
2023-03-05T12:44:26.124Z,36.97
2023-03-05T12:49:25.772Z,36.98
2023-03-05T12:54:25.439Z,36.97
2023-03-05T12:59:25.129Z,37.01
2023-03-05T13:04:24.787Z,37.08
2023-03-05T13:09:24.466Z,36.84
2023-03-05T13:14:24.181Z,37.00
2023-03-05T13:19:23.840Z,36.91
2023-03-05T13:24:23.523Z,37.04
2023-03-05T13:29:23.236Z,37.03
2023-03-05T13:34:22.887Z,37.14
2023-03-05T13:39:22.589Z,37.43
2023-03-05T13:44:22.274Z,37.24
2023-03-05T13:49:21.992Z,37.12
2023-03-05T13:54:21.652Z,37.26
2023-03-05T13:59:21.384Z,37.23
2023-03-05T14:04:21.115Z,37.36
2023-03-05T14:09:20.792Z,37.42
2023-03-05T14:14:20.716Z,37.28
2023-03-05T14:19:20.242Z,37.27
2023-03-05T14:24:19.909Z,37.32
2023-03-05T14:29:19.619Z,37.18
2023-03-05T14:34:19.316Z,37.18
2023-03-05T14:39:19.027Z,37.35
2023-03-05T14:44:18.773Z,38.39
2023-03-05T14:49:18.454Z,38.44
2023-03-05T14:54:18.149Z,39.65
2023-03-05T14:59:17.897Z,38.56
2023-03-05T15:04:17.572Z,38.73
2023-03-05T15:09:17.269Z,38.22
2023-03-05T15:14:16.985Z,38.05
2023-03-05T15:19:16.932Z,38.01
2023-03-05T15:24:16.266Z,38.16
2023-03-05T15:29:15.931Z,38.21
2023-03-05T15:34:15.581Z,37.59
2023-03-05T15:39:15.248Z,37.71
2023-03-05T15:44:14.904Z,37.56
2023-03-05T15:49:14.589Z,37.74
2023-03-05T15:54:14.245Z,37.03
2023-03-05T15:59:13.890Z,37.74
2023-03-05T16:04:13.550Z,37.64
2023-03-05T16:09:13.188Z,37.38
2023-03-05T16:14:12.836Z,37.23
2023-03-05T16:19:12.501Z,36.91
2023-03-05T16:24:12.163Z,36.96
2023-03-05T16:29:11.992Z,36.70
2023-03-05T16:34:11.448Z,36.90
2023-03-05T16:39:11.107Z,36.94
2023-03-05T16:44:10.754Z,37.88
2023-03-05T16:49:10.381Z,37.43
2023-03-05T16:54:10.288Z,37.69
2023-03-05T16:59:09.669Z,37.95
2023-03-05T17:04:09.359Z,38.13
2023-03-05T17:09:08.974Z,38.32
2023-03-05T17:14:08.653Z,38.37
2023-03-05T17:19:08.279Z,38.37
2023-03-05T17:24:07.956Z,38.19
2023-03-05T17:29:07.612Z,38.22
2023-03-05T17:34:07.288Z,38.31
2023-03-05T17:39:06.966Z,38.32
2023-03-05T17:44:06.606Z,38.38
2023-03-05T17:49:06.281Z,38.45
2023-03-05T17:54:06.153Z,38.47
2023-03-05T17:59:05.631Z,38.61
2023-03-05T18:04:05.448Z,38.67
2023-03-05T18:09:05.017Z,38.77
2023-03-05T18:14:04.706Z,38.86
2023-03-05T18:19:04.370Z,38.95
2023-03-05T18:24:04.059Z,39.07
2023-03-05T18:29:03.738Z,39.07
2023-03-05T18:34:03.442Z,39.08
2023-03-05T18:39:03.125Z,39.14
2023-03-05T18:44:02.833Z,39.10
2023-03-05T18:49:02.509Z,39.12
2023-03-05T18:54:02.211Z,39.11
2023-03-05T18:59:01.914Z,39.12
2023-03-05T19:04:01.636Z,39.12
2023-03-05T19:09:02.975Z,39.14
2023-03-05T19:14:01.010Z,39.15
2023-03-05T19:19:00.712Z,39.11
2023-03-05T19:24:00.442Z,39.08
2023-03-05T19:29:00.116Z,39.13
2023-03-05T19:33:59.836Z,39.17
2023-03-05T19:38:59.527Z,39.21
2023-03-05T19:43:59.223Z,39.32
2023-03-05T19:48:58.908Z,39.46
2023-03-05T19:53:58.613Z,39.58
2023-03-05T19:58:58.364Z,39.64
2023-03-05T20:03:58.044Z,39.70
2023-03-05T20:08:57.727Z,39.74
2023-03-05T20:13:57.427Z,39.76
2023-03-05T20:18:57.106Z,39.82
2023-03-05T20:23:56.810Z,39.81
2023-03-05T20:28:56.497Z,39.80
2023-03-05T20:33:56.284Z,39.82
2023-03-05T20:38:55.933Z,39.89
2023-03-05T20:43:55.624Z,39.88
2023-03-05T20:48:55.331Z,39.84
2023-03-05T20:53:55.052Z,39.85
2023-03-05T20:58:54.748Z,39.85
2023-03-05T21:03:54.446Z,39.81
2023-03-05T21:08:54.127Z,39.69
2023-03-05T21:13:59.829Z,39.56
2023-03-05T21:18:53.497Z,39.49
2023-03-05T21:23:53.204Z,39.46
2023-03-05T21:28:52.890Z,39.46
2023-03-05T21:33:52.602Z,39.49
2023-03-05T21:38:52.307Z,39.56
2023-03-05T21:43:52.031Z,39.62
2023-03-05T21:48:51.905Z,39.75
2023-03-05T21:53:51.537Z,39.86
2023-03-05T21:58:51.266Z,39.78
2023-03-05T22:03:51.042Z,39.99
2023-03-05T22:08:50.751Z,40.32
2023-03-05T22:13:50.510Z,40.69
2023-03-05T22:18:50.248Z,40.94
2023-03-05T22:23:50.058Z,41.16
2023-03-05T22:28:49.755Z,41.38
2023-03-05T22:33:49.508Z,41.60
2023-03-05T22:38:49.281Z,41.75
2023-03-05T22:43:49.060Z,41.75
2023-03-05T22:48:48.839Z,41.74
2023-03-05T22:53:48.640Z,41.86
2023-03-05T22:58:48.487Z,42.07
2023-03-05T23:03:48.308Z,42.38
2023-03-05T23:08:48.055Z,42.61
2023-03-05T23:13:47.872Z,42.76
2023-03-05T23:18:47.592Z,42.89
2023-03-05T23:23:47.412Z,43.07
2023-03-05T23:28:47.235Z,43.16
2023-03-05T23:33:47.060Z,43.43
2023-03-05T23:38:46.857Z,43.61
2023-03-05T23:43:46.688Z,43.72
2023-03-05T23:48:46.522Z,43.83
2023-03-05T23:53:46.339Z,43.94
2023-03-05T23:58:46.170Z,44.01
